香港 の空港の天気 - METARとTAF

香港国際空港 ( VHHH / HKG ) - 香港 赤リョウ角
飛行場実況気象(Metar)
観測時間08/26 03:00 HKT (08/25 19:00 UTC)
風向・風速南 4m/s
視程8000m
天気現象雷雨
少しの雲 雲底高度 370m
少しの雲 雲底高度 460m
全天の4割程度の雲 雲底高度 910m
気温24℃
湿度89%
気圧1004hPa
METARVHHH 251900Z 17008KT 8000 TSRA FEW012 FEW015CB SCT030 24/22 Q1004 RERA TEMPO 2500 TSRA FEW012CB SCT025 BKN040
過去の天気等 Google飛行場航空写真 Wunderground天気予報

過去48時間のMETAR

飛行場予報(TAF)
発表時間: 8/26 01:00 HKT (8/25 17:00 UTC)
予報対象時間: 26日2時 HKT ~ 27日8時 HKT
風向・風速南南西 8m/s
視程7000m
少しの雲 雲底高度 760m
全天の4割程度の雲 雲底高度 1070m
26日2時 HKT ~ 26日6時 HKT に一時的に
風向・風速不定 10m/s 瞬間風速 15m/s
視程2500m
天気現象雷雨
少しの積乱雲 雲底高度 370m
全天の4割程度の雲 雲底高度 910m
全天の8割程度の雲 雲底高度 1220m
26日17時 HKT ~ 26日19時 HKT に徐々に
風向・風速南東 5m/s
26日22時 HKT ~ 27日2時 HKT に一時的に
視程4000m
天気現象しゅう雨
TAF VHHH 251700Z 2518/2624 20015KT 7000 FEW025 SCT035 TX33/2606Z TN25/2522Z TN27/2622Z
TEMPO 2518/2522 VRB20G30KT 2500 TSRA FEW012CB SCT030 BKN040
BECMG 2609/2611 14010KT
TEMPO 2614/2618 4000 SHRA